createdAt,value
2018-08-03T00:00:09.595Z,20.20
2018-08-03T00:02:38.013Z,20.20
2018-08-03T00:05:06.342Z,20.10
2018-08-03T00:07:34.634Z,20.00
2018-08-03T00:10:03.406Z,20.00
2018-08-03T00:12:31.682Z,19.90
2018-08-03T00:14:59.983Z,19.90
2018-08-03T00:17:28.309Z,19.80
2018-08-03T00:22:24.662Z,19.80
2018-08-03T00:24:52.966Z,19.70
2018-08-03T00:27:21.344Z,19.60
2018-08-03T00:29:49.698Z,19.60
2018-08-03T00:34:46.090Z,19.60
2018-08-03T00:37:14.442Z,19.60
2018-08-03T00:39:42.833Z,19.60
2018-08-03T00:42:11.190Z,19.50
2018-08-03T00:44:39.524Z,19.50
2018-08-03T00:47:07.841Z,19.50
2018-08-03T00:49:37.153Z,19.50
2018-08-03T00:52:05.542Z,19.40
2018-08-03T00:54:34.185Z,19.40
2018-08-03T00:57:02.508Z,19.40
2018-08-03T00:59:30.863Z,19.40
2018-08-03T01:01:59.222Z,19.40
2018-08-03T01:04:27.598Z,19.40
2018-08-03T01:06:55.958Z,19.40
2018-08-03T01:09:24.339Z,19.30
2018-08-03T01:11:52.663Z,19.30
2018-08-03T01:14:21.056Z,19.30
2018-08-03T01:16:49.351Z,19.30
2018-08-03T01:19:17.681Z,19.30
2018-08-03T01:21:46.098Z,19.30
2018-08-03T01:24:14.425Z,19.30
2018-08-03T01:26:42.770Z,19.20
2018-08-03T01:29:11.110Z,19.20
2018-08-03T01:31:39.468Z,19.20
2018-08-03T01:34:07.785Z,19.20
2018-08-03T01:36:36.121Z,19.20
2018-08-03T01:39:07.143Z,19.10
2018-08-03T01:41:35.556Z,19.10
2018-08-03T01:44:03.878Z,19.10
2018-08-03T01:46:32.235Z,19.10
2018-08-03T01:49:00.588Z,19.00
2018-08-03T01:51:29.015Z,19.10
2018-08-03T01:53:57.417Z,19.10
2018-08-03T01:56:25.736Z,19.00
2018-08-03T01:58:54.090Z,19.00
2018-08-03T02:01:22.422Z,19.00
2018-08-03T02:03:50.758Z,19.00
2018-08-03T02:06:19.111Z,19.00
2018-08-03T02:08:47.455Z,18.90
2018-08-03T02:11:15.839Z,19.00
2018-08-03T02:13:44.189Z,19.00
2018-08-03T02:16:12.563Z,18.90
2018-08-03T02:18:40.918Z,18.90
2018-08-03T02:21:09.293Z,18.90
2018-08-03T02:23:37.659Z,18.80
2018-08-03T02:26:05.978Z,18.90
2018-08-03T02:28:34.312Z,18.80
2018-08-03T02:31:02.656Z,18.80
2018-08-03T02:33:31.180Z,18.80
2018-08-03T02:40:56.074Z,18.80
2018-08-03T02:43:24.476Z,18.80
2018-08-03T02:45:52.812Z,18.80
2018-08-03T02:48:21.185Z,18.70
2018-08-03T02:50:49.544Z,18.80
2018-08-03T02:53:17.889Z,18.80
2018-08-03T02:55:46.266Z,18.70
2018-08-03T02:58:14.635Z,18.70
2018-08-03T03:00:43.006Z,18.60
2018-08-03T03:03:11.394Z,18.60
2018-08-03T03:05:39.774Z,18.70
2018-08-03T03:08:09.399Z,18.60
2018-08-03T03:10:38.990Z,18.60
2018-08-03T03:13:07.369Z,18.60
2018-08-03T03:15:35.708Z,18.60
2018-08-03T03:18:04.041Z,18.50
2018-08-03T03:20:32.430Z,18.50
2018-08-03T03:23:00.788Z,18.50
2018-08-03T03:25:29.143Z,18.50
2018-08-03T03:27:57.489Z,18.50
2018-08-03T03:32:54.184Z,18.50
2018-08-03T03:35:22.518Z,18.50
2018-08-03T03:40:25.325Z,18.50
2018-08-03T03:42:53.696Z,18.50
2018-08-03T03:45:22.041Z,18.50
2018-08-03T03:47:50.381Z,18.50
2018-08-03T03:50:19.089Z,18.40
2018-08-03T03:52:47.452Z,18.50
2018-08-03T03:55:15.834Z,18.50
2018-08-03T03:57:44.219Z,18.40
2018-08-03T04:00:12.609Z,18.40
2018-08-03T04:02:40.966Z,18.30
2018-08-03T04:05:09.494Z,18.40
2018-08-03T04:07:38.147Z,18.30
2018-08-03T04:10:06.507Z,18.30
2018-08-03T04:12:34.886Z,18.30
2018-08-03T04:15:03.268Z,18.40
2018-08-03T04:17:31.611Z,18.40
2018-08-03T04:22:28.000Z,18.40
2018-08-03T04:24:56.377Z,18.40
2018-08-03T04:27:24.706Z,18.40
2018-08-03T04:29:53.035Z,18.40
2018-08-03T04:32:21.440Z,18.40
2018-08-03T04:34:49.819Z,18.50
2018-08-03T04:37:18.260Z,18.50
2018-08-03T04:39:46.628Z,18.50
2018-08-03T04:42:15.063Z,18.50
2018-08-03T04:44:43.368Z,18.40
2018-08-03T04:47:11.713Z,18.50
2018-08-03T04:49:40.064Z,18.50
2018-08-03T04:52:08.443Z,18.50
2018-08-03T04:54:36.793Z,18.60
2018-08-03T04:59:33.240Z,18.60
2018-08-03T05:02:01.583Z,18.60
2018-08-03T05:04:30.448Z,18.70
2018-08-03T05:06:58.814Z,18.80
2018-08-03T05:09:27.130Z,18.80
2018-08-03T05:11:55.536Z,18.90
2018-08-03T05:14:23.877Z,18.90
2018-08-03T05:16:52.288Z,18.90
2018-08-03T05:19:20.638Z,19.00
2018-08-03T05:21:49.013Z,19.00
2018-08-03T05:24:17.386Z,19.10
2018-08-03T05:26:45.738Z,19.10
2018-08-03T05:29:14.090Z,19.20
2018-08-03T05:31:42.461Z,19.30
2018-08-03T05:34:10.798Z,19.30
2018-08-03T05:36:39.160Z,19.40
2018-08-03T05:39:10.280Z,19.40
2018-08-03T05:41:39.498Z,19.50
2018-08-03T05:44:08.290Z,19.60
2018-08-03T05:46:36.665Z,19.70
2018-08-03T05:49:05.566Z,19.70
2018-08-03T05:51:33.942Z,19.80
2018-08-03T05:54:02.314Z,19.90
2018-08-03T05:56:30.925Z,20.00
2018-08-03T05:58:59.222Z,20.00
2018-08-03T06:01:27.570Z,20.10
2018-08-03T06:03:56.070Z,20.20
2018-08-03T06:06:24.357Z,20.30
2018-08-03T06:08:52.686Z,20.30
2018-08-03T06:11:21.113Z,20.40
2018-08-03T06:13:49.486Z,20.40
2018-08-03T06:16:17.830Z,20.50
2018-08-03T06:18:46.193Z,20.60
2018-08-03T06:21:14.539Z,20.70
2018-08-03T06:23:42.919Z,20.80
2018-08-03T06:26:11.222Z,20.80
2018-08-03T06:28:39.572Z,20.90
2018-08-03T06:31:07.940Z,21.10
2018-08-03T06:33:36.347Z,21.10
2018-08-03T06:36:04.659Z,21.20
2018-08-03T06:38:32.975Z,21.30
2018-08-03T06:41:01.369Z,21.40
2018-08-03T06:43:29.730Z,21.50
2018-08-03T06:45:58.137Z,21.60
2018-08-03T06:48:26.482Z,21.60
2018-08-03T06:50:55.158Z,21.60
2018-08-03T06:53:23.511Z,21.70
2018-08-03T06:55:51.847Z,21.70
2018-08-03T06:58:20.185Z,21.70
2018-08-03T07:00:48.538Z,21.80
2018-08-03T07:05:44.984Z,22.00
2018-08-03T07:08:13.466Z,22.10
2018-08-03T07:10:41.894Z,22.20
2018-08-03T07:13:10.258Z,22.30
2018-08-03T07:15:38.658Z,22.40
2018-08-03T07:18:07.327Z,22.60
2018-08-03T07:20:35.743Z,22.50
2018-08-03T07:23:04.065Z,22.60
2018-08-03T07:25:32.674Z,22.70
2018-08-03T07:28:00.784Z,22.80
2018-08-03T07:30:29.123Z,22.90
2018-08-03T07:32:57.443Z,22.90
2018-08-03T07:35:25.866Z,22.90
2018-08-03T07:37:54.972Z,23.00
2018-08-03T07:40:23.291Z,23.00
2018-08-03T07:42:51.646Z,23.10
2018-08-03T07:45:19.970Z,23.20
2018-08-03T07:47:48.307Z,23.30
2018-08-03T07:50:16.664Z,23.50
2018-08-03T07:52:45.033Z,23.60
2018-08-03T07:55:13.392Z,23.60
2018-08-03T08:00:10.091Z,23.90
2018-08-03T08:02:38.478Z,23.90
2018-08-03T08:05:07.157Z,23.80
2018-08-03T08:07:35.541Z,24.00
2018-08-03T08:10:03.889Z,24.00
2018-08-03T08:12:32.217Z,24.10
2018-08-03T08:15:00.654Z,24.00
2018-08-03T08:17:28.983Z,24.20
2018-08-03T08:19:57.325Z,24.30
2018-08-03T08:22:25.700Z,24.30
2018-08-03T08:24:54.102Z,24.40
2018-08-03T08:27:22.604Z,24.50
2018-08-03T08:29:51.314Z,24.50
2018-08-03T08:32:19.695Z,24.60
2018-08-03T08:37:16.129Z,24.70
2018-08-03T08:39:44.498Z,24.80
2018-08-03T08:42:12.906Z,24.70
2018-08-03T08:44:41.290Z,24.80
2018-08-03T08:47:10.571Z,24.80
2018-08-03T08:54:35.132Z,25.10
2018-08-03T08:57:03.580Z,25.10
2018-08-03T08:59:31.942Z,25.10
2018-08-03T09:02:00.305Z,25.20
2018-08-03T09:04:28.656Z,25.30
2018-08-03T09:06:56.991Z,25.40
2018-08-03T09:09:27.008Z,25.40
2018-08-03T09:14:23.669Z,25.60
2018-08-03T09:21:48.575Z,25.80
2018-08-03T09:24:16.869Z,25.90
2018-08-03T09:29:13.312Z,26.10
2018-08-03T09:31:41.793Z,26.10
2018-08-03T09:34:10.086Z,26.40
2018-08-03T09:36:38.468Z,26.50
2018-08-03T09:39:07.682Z,26.60
2018-08-03T09:41:36.016Z,26.50
2018-08-03T09:44:04.338Z,26.40
2018-08-03T09:46:32.684Z,26.30
2018-08-03T09:49:01.071Z,26.40
2018-08-03T09:51:29.390Z,26.40
2018-08-03T09:53:57.782Z,26.70
2018-08-03T09:56:26.170Z,27.00
2018-08-03T09:58:54.505Z,26.90
2018-08-03T10:01:22.902Z,26.90
2018-08-03T10:03:51.232Z,26.80
2018-08-03T10:06:19.560Z,27.00
2018-08-03T10:08:48.013Z,27.40
2018-08-03T10:11:16.319Z,27.60
2018-08-03T10:13:44.638Z,27.70
2018-08-03T10:16:12.977Z,27.90
2018-08-03T10:18:42.604Z,28.10
2018-08-03T10:21:10.946Z,27.90
2018-08-03T10:23:39.339Z,27.70
2018-08-03T10:26:07.675Z,27.50
2018-08-03T10:28:36.035Z,27.60
2018-08-03T10:31:04.375Z,28.10
2018-08-03T10:33:32.715Z,28.30
2018-08-03T10:36:01.073Z,28.20
2018-08-03T10:41:04.111Z,27.90
2018-08-03T10:43:32.425Z,27.90
2018-08-03T10:46:00.733Z,27.90
2018-08-03T10:48:29.141Z,28.30
2018-08-03T10:53:25.617Z,27.50
2018-08-03T10:55:53.941Z,27.70
2018-08-03T10:58:22.356Z,27.90
2018-08-03T11:00:50.646Z,27.80
2018-08-03T11:03:19.042Z,27.70
2018-08-03T11:05:47.373Z,27.80
2018-08-03T11:08:15.690Z,28.00
2018-08-03T11:10:44.031Z,28.10
2018-08-03T11:13:12.358Z,27.90
2018-08-03T11:15:40.643Z,27.90
2018-08-03T11:18:08.998Z,27.70
2018-08-03T11:20:37.719Z,28.00
2018-08-03T11:23:06.174Z,28.10
2018-08-03T11:25:34.534Z,28.00
2018-08-03T11:28:02.922Z,28.30
2018-08-03T11:30:31.294Z,28.40
2018-08-03T11:32:59.721Z,28.40
2018-08-03T11:35:28.056Z,28.50
2018-08-03T11:37:56.383Z,28.30
2018-08-03T11:40:24.690Z,28.60
2018-08-03T11:42:52.983Z,28.80
2018-08-03T11:45:21.892Z,28.60
2018-08-03T11:47:50.198Z,28.70
2018-08-03T11:50:18.580Z,28.90
2018-08-03T11:52:46.890Z,29.10
2018-08-03T11:55:15.622Z,29.00
2018-08-03T11:57:43.938Z,29.10
2018-08-03T12:00:12.244Z,29.10
2018-08-03T12:02:40.576Z,29.30
2018-08-03T12:05:08.926Z,29.30
2018-08-03T12:07:37.283Z,29.00
2018-08-03T12:10:05.905Z,29.20
2018-08-03T12:12:34.765Z,29.40
2018-08-03T12:15:03.131Z,29.40
2018-08-03T12:17:31.479Z,29.50
2018-08-03T12:19:59.818Z,29.80
2018-08-03T12:22:28.194Z,29.90
2018-08-03T12:24:56.553Z,29.70
2018-08-03T12:27:24.887Z,29.60
2018-08-03T12:29:53.558Z,29.70
2018-08-03T12:32:21.932Z,29.90
2018-08-03T12:34:50.341Z,30.00
2018-08-03T12:37:20.040Z,30.20
2018-08-03T12:39:48.454Z,29.90
2018-08-03T12:42:16.876Z,30.10
2018-08-03T12:44:45.926Z,30.10
2018-08-03T12:47:14.233Z,30.70
2018-08-03T12:49:42.610Z,30.90
2018-08-03T12:52:11.023Z,31.00
2018-08-03T12:54:40.263Z,30.70
2018-08-03T12:59:36.833Z,30.90
2018-08-03T13:02:05.184Z,30.80
2018-08-03T13:04:33.908Z,30.40
2018-08-03T13:11:58.535Z,30.50
2018-08-03T13:14:27.552Z,30.60
2018-08-03T13:16:55.940Z,30.70
2018-08-03T13:19:24.260Z,30.50
2018-08-03T13:21:52.653Z,30.80
2018-08-03T13:24:21.777Z,30.90
2018-08-03T13:26:50.159Z,31.00
2018-08-03T13:29:18.620Z,30.80
2018-08-03T13:31:46.936Z,30.70
2018-08-03T13:34:15.966Z,31.00
2018-08-03T13:36:44.346Z,30.80
2018-08-03T13:39:12.700Z,30.80
2018-08-03T13:41:41.040Z,30.80
2018-08-03T13:44:09.477Z,30.90
2018-08-03T13:46:37.815Z,30.90
2018-08-03T13:49:06.135Z,31.20
2018-08-03T13:51:34.933Z,31.20
2018-08-03T13:54:03.535Z,31.00
2018-08-03T13:56:31.879Z,30.90
2018-08-03T13:59:00.280Z,31.10
2018-08-03T14:01:38.717Z,31.40
2018-08-03T14:04:07.148Z,31.30
2018-08-03T14:06:35.520Z,31.60
2018-08-03T14:11:32.775Z,31.80
2018-08-03T15:52:53.675Z,31.50
2018-08-03T15:55:22.072Z,34.90
2018-08-03T15:57:50.509Z,34.80
2018-08-03T16:00:19.123Z,34.60
2018-08-03T16:02:47.567Z,35.10
2018-08-03T16:05:15.965Z,35.30
2018-08-03T16:07:44.432Z,34.70
2018-08-03T16:10:12.822Z,34.80
2018-08-03T16:12:41.251Z,34.80
2018-08-03T16:15:09.614Z,34.90
2018-08-03T16:17:38.999Z,34.60
2018-08-03T16:20:07.575Z,34.70
2018-08-03T16:22:36.030Z,35.00
2018-08-03T16:25:05.317Z,35.10
2018-08-03T16:27:33.699Z,35.00
2018-08-03T16:30:02.102Z,34.70
2018-08-03T16:32:30.483Z,35.00
2018-08-03T16:34:58.820Z,34.70
2018-08-03T16:37:27.168Z,34.50
2018-08-03T16:39:55.514Z,34.40
2018-08-03T16:42:23.851Z,34.40
2018-08-03T16:44:52.221Z,34.40
2018-08-03T16:47:20.547Z,34.30
2018-08-03T16:49:49.223Z,33.20
2018-08-03T16:52:17.557Z,32.50
2018-08-03T16:54:45.883Z,32.00
2018-08-03T16:57:14.271Z,31.60
2018-08-03T16:59:42.642Z,31.50
2018-08-03T17:02:11.104Z,32.10
2018-08-03T17:04:39.524Z,32.70
2018-08-03T17:07:08.688Z,33.30
2018-08-03T17:09:37.027Z,33.50
2018-08-03T17:12:05.369Z,33.70
2018-08-03T17:14:33.790Z,34.10
2018-08-03T17:17:02.102Z,34.20
2018-08-03T17:19:30.477Z,34.00
2018-08-03T17:21:58.862Z,32.50
2018-08-03T17:24:27.246Z,30.50
2018-08-03T17:26:55.598Z,29.30
2018-08-03T17:29:23.988Z,28.90
2018-08-03T17:31:52.420Z,28.60
2018-08-03T17:34:20.840Z,28.40
2018-08-03T17:36:49.194Z,28.30
2018-08-03T17:39:17.491Z,28.20
2018-08-03T17:44:14.114Z,28.10
2018-08-03T17:46:42.490Z,28.00
2018-08-03T17:49:10.870Z,27.90
2018-08-03T17:51:39.197Z,27.80
2018-08-03T17:54:07.615Z,27.80
2018-08-03T17:56:36.278Z,27.70
2018-08-03T17:59:04.557Z,27.60
2018-08-03T18:01:32.895Z,27.60
2018-08-03T18:04:01.309Z,27.50
2018-08-03T18:06:36.337Z,27.40
2018-08-03T18:09:06.350Z,27.30
2018-08-03T18:11:34.742Z,27.30
2018-08-03T18:14:03.130Z,27.20
2018-08-03T18:16:31.511Z,27.00
2018-08-03T18:18:59.931Z,26.90
2018-08-03T18:21:28.262Z,26.90
2018-08-03T18:23:57.535Z,26.80
2018-08-03T18:26:25.915Z,26.70
2018-08-03T18:28:54.330Z,26.60
2018-08-03T18:31:23.016Z,26.50
2018-08-03T18:33:51.477Z,26.50
2018-08-03T18:36:19.984Z,26.50
2018-08-03T18:38:48.379Z,26.40
2018-08-03T18:41:17.284Z,26.30
2018-08-03T18:43:45.646Z,26.20
2018-08-03T18:46:14.267Z,26.10
2018-08-03T18:48:42.626Z,26.00
2018-08-03T18:51:12.687Z,25.90
2018-08-03T18:53:41.062Z,25.80
2018-08-03T18:56:09.472Z,25.70
2018-08-03T18:58:37.818Z,25.70
2018-08-03T19:01:06.347Z,25.70
2018-08-03T19:03:34.763Z,25.70
2018-08-03T19:06:03.312Z,25.60
2018-08-03T19:08:31.701Z,25.50
2018-08-03T19:11:01.286Z,25.50
2018-08-03T19:13:29.627Z,25.50
2018-08-03T19:15:58.123Z,25.40
2018-08-03T19:18:26.540Z,25.40
2018-08-03T19:20:54.938Z,25.40
2018-08-03T19:25:53.099Z,25.30
2018-08-03T19:28:21.609Z,25.20
2018-08-03T19:30:50.007Z,25.10
2018-08-03T19:35:46.509Z,25.00
2018-08-03T19:38:15.360Z,25.00
2018-08-03T19:40:43.727Z,24.80
2018-08-03T19:43:12.200Z,24.80
2018-08-03T19:48:09.941Z,24.80
2018-08-03T19:50:38.365Z,24.80
2018-08-03T19:53:06.711Z,24.80
2018-08-03T19:55:35.177Z,24.80
2018-08-03T19:58:05.034Z,24.70
2018-08-03T20:03:07.243Z,24.60
2018-08-03T20:05:36.408Z,24.50
2018-08-03T20:08:11.431Z,24.40
2018-08-03T20:10:39.810Z,24.40
2018-08-03T20:13:08.210Z,24.40
2018-08-03T20:18:04.698Z,24.30
2018-08-03T20:20:33.338Z,24.20
2018-08-03T20:23:01.666Z,24.20
2018-08-03T20:25:30.956Z,24.20
2018-08-03T20:27:59.300Z,24.10
2018-08-03T20:30:27.714Z,24.00
2018-08-03T20:32:56.068Z,24.00
2018-08-03T20:35:24.460Z,23.80
2018-08-03T20:37:52.826Z,23.90
2018-08-03T20:40:21.198Z,23.90
2018-08-03T20:42:49.790Z,23.80
2018-08-03T20:47:46.198Z,23.80
2018-08-03T20:50:14.574Z,23.80
2018-08-03T20:52:43.234Z,23.70
2018-08-03T20:55:11.730Z,23.70
2018-08-03T20:57:40.242Z,23.60
2018-08-03T21:00:08.734Z,23.60
2018-08-03T21:02:37.126Z,23.50
2018-08-03T21:05:05.750Z,23.40
2018-08-03T21:07:34.103Z,23.40
2018-08-03T21:10:02.471Z,23.30
2018-08-03T21:12:37.249Z,23.20
2018-08-03T21:15:06.937Z,23.10
2018-08-03T21:17:35.286Z,23.00
2018-08-03T21:22:31.767Z,23.00
2018-08-03T21:27:28.396Z,22.90
2018-08-03T21:32:25.062Z,22.90
2018-08-03T21:34:53.522Z,22.90
2018-08-03T21:37:21.971Z,22.80
2018-08-03T21:39:50.319Z,22.70
2018-08-03T21:42:18.689Z,22.70
2018-08-03T21:44:47.106Z,22.70
2018-08-03T21:47:15.491Z,22.70
2018-08-03T21:49:43.949Z,22.60
2018-08-03T21:52:12.287Z,22.60
2018-08-03T21:54:40.602Z,22.50
2018-08-03T21:57:08.953Z,22.40
2018-08-03T21:59:37.293Z,22.40
2018-08-03T22:02:05.659Z,22.50
2018-08-03T22:04:34.030Z,22.50
2018-08-03T22:07:02.365Z,22.60
2018-08-03T22:09:30.754Z,22.50
2018-08-03T22:11:59.159Z,22.50
2018-08-03T22:14:27.472Z,22.40
2018-08-03T22:16:55.890Z,22.30
2018-08-03T22:19:24.241Z,22.30
2018-08-03T22:21:52.605Z,22.30
2018-08-03T22:24:21.076Z,22.20
2018-08-03T22:26:49.358Z,22.20
2018-08-03T22:29:17.745Z,22.10
2018-08-03T22:31:46.161Z,22.10
2018-08-03T22:34:14.601Z,22.20
2018-08-03T22:36:42.924Z,22.20
2018-08-03T22:39:11.309Z,22.10
2018-08-03T22:41:39.798Z,22.10
2018-08-03T22:44:08.113Z,22.10
2018-08-03T22:46:36.484Z,22.00
2018-08-03T22:49:04.850Z,22.00
2018-08-03T22:51:33.463Z,22.00
2018-08-03T22:54:01.946Z,22.10
2018-08-03T22:56:30.308Z,22.10
2018-08-03T22:58:58.675Z,22.20
2018-08-03T23:01:27.025Z,22.20
2018-08-03T23:03:55.353Z,22.20
2018-08-03T23:06:23.816Z,22.30
2018-08-03T23:08:52.205Z,22.30
2018-08-03T23:11:20.601Z,22.30
2018-08-03T23:13:49.017Z,22.30
2018-08-03T23:16:17.340Z,22.30
2018-08-03T23:18:45.676Z,22.20
2018-08-03T23:21:15.016Z,22.30
2018-08-03T23:23:43.418Z,22.30
2018-08-03T23:26:11.753Z,22.20
2018-08-03T23:28:40.162Z,22.20
2018-08-03T23:31:08.490Z,22.20
2018-08-03T23:33:36.864Z,22.20
2018-08-03T23:36:05.558Z,22.20
2018-08-03T23:38:33.911Z,22.20
2018-08-03T23:41:02.267Z,22.20
2018-08-03T23:43:30.650Z,22.20
2018-08-03T23:45:58.981Z,22.20
2018-08-03T23:48:27.337Z,22.10
2018-08-03T23:53:23.738Z,22.20
2018-08-03T23:55:52.114Z,22.20
2018-08-03T23:58:20.506Z,22.20
